sensor_id;sensor_type;location;lat;lon;timestamp;pressure;altitude;pressure_sealevel;temperature;humidity
76124;BME280;65173;48.066;20.976;2023-06-24T00:00:03;100540.66;;;19.13;100.00
76124;BME280;65173;48.066;20.976;2023-06-24T00:03:09;100540.03;;;19.23;100.00
76124;BME280;65173;48.066;20.976;2023-06-24T00:06:15;100532.16;;;19.40;100.00
76124;BME280;65173;48.066;20.976;2023-06-24T00:09:21;100527.78;;;19.59;100.00
76124;BME280;65173;48.066;20.976;2023-06-24T00:12:23;100527.03;;;19.32;100.00
76124;BME280;65173;48.066;20.976;2023-06-24T00:15:26;100515.63;;;19.46;100.00
76124;BME280;65173;48.066;20.976;2023-06-24T00:18:30;100492.84;;;19.47;100.00
76124;BME280;65173;48.066;20.976;2023-06-24T00:21:32;100479.44;;;19.54;100.00
76124;BME280;65173;48.066;20.976;2023-06-24T00:24:35;100479.13;;;19.59;100.00
76124;BME280;65173;48.066;20.976;2023-06-24T00:27:38;100470.28;;;19.62;100.00
76124;BME280;65173;48.066;20.976;2023-06-24T00:30:41;100473.75;;;19.62;100.00
76124;BME280;65173;48.066;20.976;2023-06-24T00:33:44;100480.41;;;19.68;100.00
76124;BME280;65173;48.066;20.976;2023-06-24T00:36:46;100453.22;;;19.58;100.00
76124;BME280;65173;48.066;20.976;2023-06-24T00:39:49;100449.34;;;19.55;100.00
76124;BME280;65173;48.066;20.976;2023-06-24T00:42:52;100439.66;;;19.54;100.00
76124;BME280;65173;48.066;20.976;2023-06-24T00:45:58;100432.34;;;19.55;100.00
76124;BME280;65173;48.066;20.976;2023-06-24T00:49:01;100438.16;;;19.57;100.00
76124;BME280;65173;48.066;20.976;2023-06-24T00:52:05;100420.91;;;19.68;100.00
76124;BME280;65173;48.066;20.976;2023-06-24T00:55:10;100386.34;;;19.51;100.00
76124;BME280;65173;48.066;20.976;2023-06-24T00:58:15;100363.38;;;19.34;100.00
76124;BME280;65173;48.066;20.976;2023-06-24T01:01:19;100338.06;;;19.16;100.00
76124;BME280;65173;48.066;20.976;2023-06-24T01:04:21;100313.50;;;18.95;100.00
76124;BME280;65173;48.066;20.976;2023-06-24T01:07:26;100308.03;;;18.91;100.00
76124;BME280;65173;48.066;20.976;2023-06-24T01:10:30;100330.13;;;19.00;100.00
76124;BME280;65173;48.066;20.976;2023-06-24T01:13:33;100323.59;;;19.01;100.00
76124;BME280;65173;48.066;20.976;2023-06-24T01:16:50;100468.66;;;18.25;100.00
76124;BME280;65173;48.066;20.976;2023-06-24T01:20:02;100491.38;;;18.24;100.00
76124;BME280;65173;48.066;20.976;2023-06-24T01:32:54;100445.47;;;18.47;100.00
76124;BME280;65173;48.066;20.976;2023-06-24T01:35:58;100440.84;;;18.48;100.00
76124;BME280;65173;48.066;20.976;2023-06-24T01:39:04;100432.94;;;18.58;100.00
76124;BME280;65173;48.066;20.976;2023-06-24T01:42:08;100428.81;;;18.64;100.00
76124;BME280;65173;48.066;20.976;2023-06-24T01:45:16;100422.94;;;18.85;100.00
76124;BME280;65173;48.066;20.976;2023-06-24T01:48:33;100406.13;;;18.95;100.00
76124;BME280;65173;48.066;20.976;2023-06-24T01:51:38;100413.31;;;19.18;100.00
76124;BME280;65173;48.066;20.976;2023-06-24T01:54:44;100423.34;;;19.17;100.00
76124;BME280;65173;48.066;20.976;2023-06-24T01:57:50;100426.53;;;19.23;100.00
76124;BME280;65173;48.066;20.976;2023-06-24T02:00:54;100419.72;;;19.32;100.00
76124;BME280;65173;48.066;20.976;2023-06-24T02:03:59;100412.59;;;19.21;100.00
76124;BME280;65173;48.066;20.976;2023-06-24T02:07:03;100418.16;;;19.35;100.00
76124;BME280;65173;48.066;20.976;2023-06-24T02:10:07;100420.91;;;19.38;100.00
76124;BME280;65173;48.066;20.976;2023-06-24T02:13:12;100423.81;;;19.53;100.00
76124;BME280;65173;48.066;20.976;2023-06-24T02:16:16;100422.28;;;19.55;100.00
76124;BME280;65173;48.066;20.976;2023-06-24T02:19:19;100423.13;;;19.29;100.00
76124;BME280;65173;48.066;20.976;2023-06-24T02:22:23;100425.13;;;19.36;100.00
76124;BME280;65173;48.066;20.976;2023-06-24T02:25:27;100429.41;;;19.37;100.00
76124;BME280;65173;48.066;20.976;2023-06-24T02:28:33;100437.19;;;19.42;100.00
76124;BME280;65173;48.066;20.976;2023-06-24T02:31:38;100436.34;;;19.34;100.00
76124;BME280;65173;48.066;20.976;2023-06-24T02:34:41;100431.78;;;19.42;100.00
76124;BME280;65173;48.066;20.976;2023-06-24T02:37:43;100432.38;;;19.58;100.00
76124;BME280;65173;48.066;20.976;2023-06-24T02:40:46;100428.25;;;19.68;100.00
76124;BME280;65173;48.066;20.976;2023-06-24T02:43:49;100416.75;;;19.78;100.00
76124;BME280;65173;48.066;20.976;2023-06-24T02:46:52;100415.59;;;19.79;100.00
76124;BME280;65173;48.066;20.976;2023-06-24T02:49:57;100411.78;;;19.84;100.00
76124;BME280;65173;48.066;20.976;2023-06-24T02:53:01;100402.16;;;19.86;100.00
76124;BME280;65173;48.066;20.976;2023-06-24T02:56:08;100394.50;;;19.95;100.00
76124;BME280;65173;48.066;20.976;2023-06-24T02:59:12;100393.78;;;20.02;100.00
76124;BME280;65173;48.066;20.976;2023-06-24T03:02:16;100392.97;;;19.98;100.00
76124;BME280;65173;48.066;20.976;2023-06-24T03:05:19;100379.41;;;19.94;100.00
76124;BME280;65173;48.066;20.976;2023-06-24T03:08:22;100378.16;;;19.81;100.00
76124;BME280;65173;48.066;20.976;2023-06-24T03:11:26;100386.63;;;19.80;100.00
76124;BME280;65173;48.066;20.976;2023-06-24T03:14:32;100399.88;;;19.88;100.00
76124;BME280;65173;48.066;20.976;2023-06-24T03:17:36;100402.16;;;19.86;100.00
76124;BME280;65173;48.066;20.976;2023-06-24T03:20:39;100397.81;;;19.78;100.00
76124;BME280;65173;48.066;20.976;2023-06-24T03:23:47;100400.53;;;19.78;100.00
76124;BME280;65173;48.066;20.976;2023-06-24T03:26:51;100402.44;;;19.77;100.00
76124;BME280;65173;48.066;20.976;2023-06-24T03:30:04;100393.63;;;19.84;100.00
76124;BME280;65173;48.066;20.976;2023-06-24T03:33:10;100394.09;;;19.93;100.00
76124;BME280;65173;48.066;20.976;2023-06-24T03:36:13;100408.03;;;19.95;100.00
76124;BME280;65173;48.066;20.976;2023-06-24T03:39:16;100410.44;;;20.07;100.00
76124;BME280;65173;48.066;20.976;2023-06-24T03:42:18;100412.69;;;19.98;100.00
76124;BME280;65173;48.066;20.976;2023-06-24T03:45:22;100423.19;;;20.03;100.00
76124;BME280;65173;48.066;20.976;2023-06-24T03:48:24;100416.47;;;19.90;100.00
76124;BME280;65173;48.066;20.976;2023-06-24T03:51:27;100433.44;;;19.84;100.00
76124;BME280;65173;48.066;20.976;2023-06-24T03:54:30;100442.06;;;19.96;100.00
76124;BME280;65173;48.066;20.976;2023-06-24T03:57:33;100447.31;;;19.82;100.00
76124;BME280;65173;48.066;20.976;2023-06-24T04:00:36;100443.16;;;19.88;100.00
76124;BME280;65173;48.066;20.976;2023-06-24T04:03:43;100437.88;;;20.02;100.00
76124;BME280;65173;48.066;20.976;2023-06-24T04:06:45;100428.34;;;20.19;100.00
76124;BME280;65173;48.066;20.976;2023-06-24T04:09:49;100431.53;;;20.32;100.00
76124;BME280;65173;48.066;20.976;2023-06-24T04:12:52;100442.78;;;20.34;100.00
76124;BME280;65173;48.066;20.976;2023-06-24T04:15:55;100443.19;;;19.95;100.00
76124;BME280;65173;48.066;20.976;2023-06-24T04:18:58;100446.72;;;19.99;100.00
76124;BME280;65173;48.066;20.976;2023-06-24T04:22:00;100446.09;;;20.17;100.00
76124;BME280;65173;48.066;20.976;2023-06-24T04:25:05;100443.88;;;20.29;100.00
76124;BME280;65173;48.066;20.976;2023-06-24T04:28:10;100445.88;;;20.36;100.00
76124;BME280;65173;48.066;20.976;2023-06-24T04:31:13;100444.03;;;20.43;100.00
76124;BME280;65173;48.066;20.976;2023-06-24T04:34:16;100456.50;;;20.11;100.00
76124;BME280;65173;48.066;20.976;2023-06-24T04:37:19;100470.72;;;20.41;100.00
76124;BME280;65173;48.066;20.976;2023-06-24T04:40:23;100467.25;;;20.44;100.00
76124;BME280;65173;48.066;20.976;2023-06-24T04:43:26;100469.53;;;20.42;100.00
76124;BME280;65173;48.066;20.976;2023-06-24T04:46:30;100475.13;;;20.20;100.00
76124;BME280;65173;48.066;20.976;2023-06-24T04:49:35;100471.69;;;20.26;100.00
76124;BME280;65173;48.066;20.976;2023-06-24T04:52:39;100478.25;;;20.22;100.00
76124;BME280;65173;48.066;20.976;2023-06-24T04:55:42;100493.66;;;20.55;100.00
76124;BME280;65173;48.066;20.976;2023-06-24T04:58:45;100504.16;;;20.60;100.00
76124;BME280;65173;48.066;20.976;2023-06-24T05:01:48;100509.91;;;20.55;100.00
76124;BME280;65173;48.066;20.976;2023-06-24T05:04:51;100514.94;;;20.56;100.00
76124;BME280;65173;48.066;20.976;2023-06-24T05:07:54;100519.66;;;20.66;100.00
76124;BME280;65173;48.066;20.976;2023-06-24T05:10:57;100518.59;;;20.78;100.00
76124;BME280;65173;48.066;20.976;2023-06-24T05:14:01;100528.72;;;20.88;100.00
76124;BME280;65173;48.066;20.976;2023-06-24T05:17:04;100528.72;;;20.88;100.00
76124;BME280;65173;48.066;20.976;2023-06-24T05:20:07;100524.38;;;20.32;100.00
76124;BME280;65173;48.066;20.976;2023-06-24T05:23:09;100529.91;;;20.43;100.00
76124;BME280;65173;48.066;20.976;2023-06-24T05:26:13;100536.56;;;20.16;100.00
76124;BME280;65173;48.066;20.976;2023-06-24T05:29:16;100533.00;;;20.45;100.00
76124;BME280;65173;48.066;20.976;2023-06-24T05:32:19;100543.28;;;20.69;100.00
76124;BME280;65173;48.066;20.976;2023-06-24T05:35:23;100548.63;;;20.62;100.00
76124;BME280;65173;48.066;20.976;2023-06-24T05:38:25;100552.03;;;20.52;100.00
76124;BME280;65173;48.066;20.976;2023-06-24T05:41:28;100560.03;;;20.82;100.00
76124;BME280;65173;48.066;20.976;2023-06-24T05:44:30;100560.03;;;20.82;100.00
76124;BME280;65173;48.066;20.976;2023-06-24T05:47:33;100574.53;;;21.04;100.00
76124;BME280;65173;48.066;20.976;2023-06-24T05:50:36;100570.72;;;21.12;100.00
76124;BME280;65173;48.066;20.976;2023-06-24T05:53:39;100569.31;;;21.29;100.00
76124;BME280;65173;48.066;20.976;2023-06-24T05:56:43;100575.66;;;21.58;100.00
76124;BME280;65173;48.066;20.976;2023-06-24T05:59:45;100585.84;;;21.78;100.00
76124;BME280;65173;48.066;20.976;2023-06-24T06:02:48;100592.19;;;22.07;100.00
76124;BME280;65173;48.066;20.976;2023-06-24T06:05:51;100584.47;;;22.24;100.00
76124;BME280;65173;48.066;20.976;2023-06-24T06:08:54;100592.31;;;22.50;100.00
76124;BME280;65173;48.066;20.976;2023-06-24T06:11:57;100598.19;;;22.80;100.00
76124;BME280;65173;48.066;20.976;2023-06-24T06:14:59;100593.91;;;22.97;100.00
76124;BME280;65173;48.066;20.976;2023-06-24T06:18:02;100594.69;;;23.26;100.00
76124;BME280;65173;48.066;20.976;2023-06-24T06:21:05;100606.31;;;23.51;100.00
76124;BME280;65173;48.066;20.976;2023-06-24T06:24:07;100611.75;;;23.34;100.00
76124;BME280;65173;48.066;20.976;2023-06-24T06:27:11;100608.63;;;23.39;100.00
76124;BME280;65173;48.066;20.976;2023-06-24T06:30:15;100613.63;;;23.76;100.00
76124;BME280;65173;48.066;20.976;2023-06-24T06:33:17;100616.19;;;24.15;100.00
76124;BME280;65173;48.066;20.976;2023-06-24T06:36:20;100611.84;;;24.32;100.00
76124;BME280;65173;48.066;20.976;2023-06-24T06:39:23;100599.94;;;24.70;100.00
76124;BME280;65173;48.066;20.976;2023-06-24T06:42:26;100606.41;;;24.87;100.00
76124;BME280;65173;48.066;20.976;2023-06-24T06:45:28;100602.91;;;24.86;100.00
76124;BME280;65173;48.066;20.976;2023-06-24T06:48:33;100608.94;;;24.60;99.55
76124;BME280;65173;48.066;20.976;2023-06-24T06:51:36;100611.38;;;24.47;96.62
76124;BME280;65173;48.066;20.976;2023-06-24T06:54:39;100605.97;;;24.92;95.66
76124;BME280;65173;48.066;20.976;2023-06-24T06:57:42;100606.22;;;25.12;97.37
76124;BME280;65173;48.066;20.976;2023-06-24T07:00:44;100604.03;;;25.37;97.60
76124;BME280;65173;48.066;20.976;2023-06-24T07:03:49;100601.13;;;25.55;96.95
76124;BME280;65173;48.066;20.976;2023-06-24T07:06:51;100598.44;;;25.85;92.31
76124;BME280;65173;48.066;20.976;2023-06-24T07:09:54;100596.41;;;25.93;88.57
76124;BME280;65173;48.066;20.976;2023-06-24T07:12:57;100588.50;;;26.33;91.52
76124;BME280;65173;48.066;20.976;2023-06-24T07:16:00;100590.00;;;25.76;88.87
76124;BME280;65173;48.066;20.976;2023-06-24T07:19:03;100588.91;;;26.31;88.04
76124;BME280;65173;48.066;20.976;2023-06-24T07:22:05;100592.53;;;26.21;91.60
76124;BME280;65173;48.066;20.976;2023-06-24T07:25:09;100582.25;;;27.06;88.17
76124;BME280;65173;48.066;20.976;2023-06-24T07:28:12;100586.59;;;27.46;84.87
76124;BME280;65173;48.066;20.976;2023-06-24T07:31:15;100594.38;;;27.28;83.33
76124;BME280;65173;48.066;20.976;2023-06-24T07:34:18;100592.13;;;27.66;80.23
76124;BME280;65173;48.066;20.976;2023-06-24T07:37:21;100593.97;;;26.83;80.66
76124;BME280;65173;48.066;20.976;2023-06-24T07:40:26;100594.06;;;27.85;80.95
76124;BME280;65173;48.066;20.976;2023-06-24T07:43:28;100597.31;;;28.52;77.19
76124;BME280;65173;48.066;20.976;2023-06-24T07:46:31;100586.78;;;28.15;75.23
76124;BME280;65173;48.066;20.976;2023-06-24T07:49:34;100584.91;;;28.48;74.10
76124;BME280;65173;48.066;20.976;2023-06-24T07:52:37;100591.75;;;28.40;73.30
76124;BME280;65173;48.066;20.976;2023-06-24T07:55:40;100584.03;;;26.92;76.63
76124;BME280;65173;48.066;20.976;2023-06-24T07:58:43;100586.06;;;27.55;77.29
76124;BME280;65173;48.066;20.976;2023-06-24T08:01:45;100591.97;;;27.93;71.38
76124;BME280;65173;48.066;20.976;2023-06-24T08:04:48;100596.53;;;28.16;70.64
76124;BME280;65173;48.066;20.976;2023-06-24T08:07:51;100588.06;;;28.62;70.25
76124;BME280;65173;48.066;20.976;2023-06-24T08:10:54;100589.09;;;29.46;67.92
76124;BME280;65173;48.066;20.976;2023-06-24T08:13:57;100590.16;;;29.65;68.49
76124;BME280;65173;48.066;20.976;2023-06-24T08:16:59;100592.22;;;30.02;72.81
76124;BME280;65173;48.066;20.976;2023-06-24T08:20:02;100583.56;;;30.42;70.89
76124;BME280;65173;48.066;20.976;2023-06-24T08:23:05;100581.56;;;30.30;68.08
76124;BME280;65173;48.066;20.976;2023-06-24T08:26:08;100583.56;;;30.55;66.57
76124;BME280;65173;48.066;20.976;2023-06-24T08:29:19;100581.16;;;30.91;63.96
76124;BME280;65173;48.066;20.976;2023-06-24T08:32:21;100576.69;;;31.63;65.63
76124;BME280;65173;48.066;20.976;2023-06-24T08:35:24;100581.59;;;30.90;68.64
76124;BME280;65173;48.066;20.976;2023-06-24T08:38:27;100568.25;;;30.03;70.99
76124;BME280;65173;48.066;20.976;2023-06-24T08:41:29;100569.00;;;30.29;70.38
76124;BME280;65173;48.066;20.976;2023-06-24T10:17:02;100548.84;;;31.17;68.29
76124;BME280;65173;48.066;20.976;2023-06-24T10:26:24;100545.94;;;31.95;64.25
76124;BME280;65173;48.066;20.976;2023-06-24T10:29:37;100546.06;;;33.08;59.22
76124;BME280;65173;48.066;20.976;2023-06-24T10:32:41;100540.38;;;34.00;59.12
76124;BME280;65173;48.066;20.976;2023-06-24T10:35:47;100527.78;;;33.48;59.87
76124;BME280;65173;48.066;20.976;2023-06-24T10:38:55;100523.38;;;33.32;59.21
76124;BME280;65173;48.066;20.976;2023-06-24T10:45:36;100523.97;;;31.52;63.21
76124;BME280;65173;48.066;20.976;2023-06-24T10:48:39;100521.56;;;31.85;61.91
76124;BME280;65173;48.066;20.976;2023-06-24T10:51:41;100524.91;;;32.78;60.85
76124;BME280;65173;48.066;20.976;2023-06-24T10:54:45;100516.72;;;32.56;60.06
76124;BME280;65173;48.066;20.976;2023-06-24T10:57:48;100519.22;;;32.82;59.75
76124;BME280;65173;48.066;20.976;2023-06-24T11:00:50;100518.72;;;32.56;58.91
76124;BME280;65173;48.066;20.976;2023-06-24T11:03:53;100504.25;;;33.61;56.91
76124;BME280;65173;48.066;20.976;2023-06-24T11:06:59;100510.78;;;31.68;57.34
76124;BME280;65173;48.066;20.976;2023-06-24T11:10:05;100511.22;;;33.38;60.78
76124;BME280;65173;48.066;20.976;2023-06-24T11:13:07;100516.16;;;33.25;58.01
76124;BME280;65173;48.066;20.976;2023-06-24T11:16:10;100514.78;;;33.72;55.53
76124;BME280;65173;48.066;20.976;2023-06-24T11:19:13;100507.84;;;32.70;59.02
76124;BME280;65173;48.066;20.976;2023-06-24T11:22:16;100505.53;;;32.01;55.06
76124;BME280;65173;48.066;20.976;2023-06-24T11:25:22;100508.00;;;31.68;55.62
76124;BME280;65173;48.066;20.976;2023-06-24T11:28:24;100512.94;;;32.81;53.25
76124;BME280;65173;48.066;20.976;2023-06-24T11:31:28;100501.28;;;32.19;55.62
76124;BME280;65173;48.066;20.976;2023-06-24T11:34:38;100498.47;;;33.23;54.38
76124;BME280;65173;48.066;20.976;2023-06-24T11:37:42;100488.75;;;33.97;53.55
76124;BME280;65173;48.066;20.976;2023-06-24T11:40:48;100484.13;;;34.03;49.27
76124;BME280;65173;48.066;20.976;2023-06-24T11:43:51;100489.16;;;34.37;48.15
76124;BME280;65173;48.066;20.976;2023-06-24T11:47:03;100489.97;;;34.53;49.29
76124;BME280;65173;48.066;20.976;2023-06-24T11:50:08;100481.16;;;34.39;47.58
76124;BME280;65173;48.066;20.976;2023-06-24T11:53:10;100486.66;;;34.87;48.91
76124;BME280;65173;48.066;20.976;2023-06-24T11:56:13;100477.94;;;35.68;47.68
76124;BME280;65173;48.066;20.976;2023-06-24T11:59:23;100469.44;;;34.98;51.51
76124;BME280;65173;48.066;20.976;2023-06-24T12:02:27;100481.63;;;35.30;49.44
76124;BME280;65173;48.066;20.976;2023-06-24T12:05:32;100471.47;;;35.27;48.16
76124;BME280;65173;48.066;20.976;2023-06-24T12:08:35;100467.09;;;35.99;45.46
76124;BME280;65173;48.066;20.976;2023-06-24T12:11:53;100471.56;;;35.62;44.93
76124;BME280;65173;48.066;20.976;2023-06-24T12:14:56;100461.34;;;34.56;43.70
76124;BME280;65173;48.066;20.976;2023-06-24T12:17:59;100461.41;;;33.99;49.24
76124;BME280;65173;48.066;20.976;2023-06-24T12:21:02;100460.28;;;33.12;49.31
76124;BME280;65173;48.066;20.976;2023-06-24T12:24:06;100459.28;;;32.15;51.77
76124;BME280;65173;48.066;20.976;2023-06-24T12:27:09;100457.94;;;31.70;50.30
76124;BME280;65173;48.066;20.976;2023-06-24T12:30:12;100451.53;;;30.98;53.95
76124;BME280;65173;48.066;20.976;2023-06-24T12:33:15;100460.38;;;32.17;56.94
76124;BME280;65173;48.066;20.976;2023-06-24T12:36:22;100462.44;;;32.35;50.86
76124;BME280;65173;48.066;20.976;2023-06-24T12:39:24;100471.31;;;31.90;54.98
76124;BME280;65173;48.066;20.976;2023-06-24T12:42:27;100457.88;;;32.01;55.09
76124;BME280;65173;48.066;20.976;2023-06-24T12:45:30;100455.25;;;31.57;52.13
76124;BME280;65173;48.066;20.976;2023-06-24T12:48:33;100449.84;;;32.98;55.13
76124;BME280;65173;48.066;20.976;2023-06-24T12:51:35;100443.88;;;33.08;47.63
76124;BME280;65173;48.066;20.976;2023-06-24T12:54:38;100440.66;;;31.79;50.29
76124;BME280;65173;48.066;20.976;2023-06-24T12:57:41;100442.28;;;32.16;56.96
76124;BME280;65173;48.066;20.976;2023-06-24T13:00:43;100436.69;;;32.56;53.98
76124;BME280;65173;48.066;20.976;2023-06-24T13:03:46;100425.53;;;33.81;50.94
76124;BME280;65173;48.066;20.976;2023-06-24T13:06:49;100436.13;;;33.73;53.38
76124;BME280;65173;48.066;20.976;2023-06-24T13:09:51;100439.56;;;32.98;50.79
76124;BME280;65173;48.066;20.976;2023-06-24T13:12:54;100449.41;;;32.44;54.25
76124;BME280;65173;48.066;20.976;2023-06-24T13:15:58;100444.09;;;31.61;54.80
76124;BME280;65173;48.066;20.976;2023-06-24T13:19:00;100441.31;;;31.52;56.77
76124;BME280;65173;48.066;20.976;2023-06-24T13:22:03;100440.72;;;31.26;59.17
76124;BME280;65173;48.066;20.976;2023-06-24T13:25:07;100428.72;;;31.20;57.27
76124;BME280;65173;48.066;20.976;2023-06-24T13:28:09;100437.78;;;30.98;57.77
76124;BME280;65173;48.066;20.976;2023-06-24T13:31:12;100429.31;;;30.71;59.02
76124;BME280;65173;48.066;20.976;2023-06-24T13:34:18;100431.53;;;30.85;54.92
76124;BME280;65173;48.066;20.976;2023-06-24T13:37:21;100434.09;;;31.85;50.84
76124;BME280;65173;48.066;20.976;2023-06-24T13:40:24;100435.00;;;31.20;54.20
76124;BME280;65173;48.066;20.976;2023-06-24T13:43:27;100429.34;;;31.46;53.36
76124;BME280;65173;48.066;20.976;2023-06-24T13:46:30;100429.06;;;31.53;53.71
76124;BME280;65173;48.066;20.976;2023-06-24T13:49:33;100433.66;;;31.03;56.17
76124;BME280;65173;48.066;20.976;2023-06-24T13:52:36;100434.28;;;32.09;55.67
76124;BME280;65173;48.066;20.976;2023-06-24T13:55:39;100423.50;;;31.74;53.48
76124;BME280;65173;48.066;20.976;2023-06-24T13:58:42;100430.22;;;32.32;50.54
76124;BME280;65173;48.066;20.976;2023-06-24T14:01:44;100424.38;;;31.71;54.40
76124;BME280;65173;48.066;20.976;2023-06-24T14:04:47;100408.28;;;30.30;61.82
76124;BME280;65173;48.066;20.976;2023-06-24T14:07:50;100421.31;;;30.51;61.98
76124;BME280;65173;48.066;20.976;2023-06-24T14:10:55;100429.81;;;30.57;62.42
76124;BME280;65173;48.066;20.976;2023-06-24T14:13:58;100425.91;;;30.89;61.89
76124;BME280;65173;48.066;20.976;2023-06-24T14:17:00;100426.00;;;31.60;59.40
76124;BME280;65173;48.066;20.976;2023-06-24T14:20:03;100426.66;;;32.04;57.48
76124;BME280;65173;48.066;20.976;2023-06-24T14:23:06;100420.88;;;31.71;59.13
76124;BME280;65173;48.066;20.976;2023-06-24T14:26:09;100419.84;;;30.94;62.64
76124;BME280;65173;48.066;20.976;2023-06-24T14:29:12;100416.19;;;30.75;60.97
76124;BME280;65173;48.066;20.976;2023-06-24T14:32:15;100407.88;;;30.53;62.46
76124;BME280;65173;48.066;20.976;2023-06-24T14:35:18;100407.97;;;30.84;61.10
76124;BME280;65173;48.066;20.976;2023-06-24T14:38:20;100397.81;;;30.72;61.05
76124;BME280;65173;48.066;20.976;2023-06-24T14:41:24;100396.72;;;31.13;60.53
76124;BME280;65173;48.066;20.976;2023-06-24T14:44:27;100389.50;;;31.37;62.43
76124;BME280;65173;48.066;20.976;2023-06-24T14:47:29;100387.19;;;31.67;57.36
76124;BME280;65173;48.066;20.976;2023-06-24T14:50:33;100386.91;;;31.34;57.43
76124;BME280;65173;48.066;20.976;2023-06-24T14:53:36;100376.47;;;31.38;57.63
76124;BME280;65173;48.066;20.976;2023-06-24T14:56:39;100375.81;;;31.25;60.16
76124;BME280;65173;48.066;20.976;2023-06-24T14:59:42;100383.28;;;31.15;59.66
76124;BME280;65173;48.066;20.976;2023-06-24T15:02:44;100385.34;;;31.33;60.21
76124;BME280;65173;48.066;20.976;2023-06-24T15:05:47;100401.56;;;31.09;61.38
76124;BME280;65173;48.066;20.976;2023-06-24T15:08:50;100395.84;;;30.38;65.00
76124;BME280;65173;48.066;20.976;2023-06-24T15:11:52;100393.59;;;30.11;66.24
76124;BME280;65173;48.066;20.976;2023-06-24T15:14:54;100396.28;;;29.89;66.53
76124;BME280;65173;48.066;20.976;2023-06-24T15:17:57;100400.56;;;29.78;68.22
76124;BME280;65173;48.066;20.976;2023-06-24T15:21:00;100403.94;;;29.31;69.97
76124;BME280;65173;48.066;20.976;2023-06-24T15:24:03;100402.31;;;28.92;72.55
76124;BME280;65173;48.066;20.976;2023-06-24T15:27:06;100407.66;;;28.54;71.65
76124;BME280;65173;48.066;20.976;2023-06-24T15:30:09;100420.72;;;28.33;71.97
76124;BME280;65173;48.066;20.976;2023-06-24T15:33:11;100426.94;;;27.69;74.46
76124;BME280;65173;48.066;20.976;2023-06-24T15:36:14;100427.56;;;27.41;75.33
76124;BME280;65173;48.066;20.976;2023-06-24T15:39:17;100424.00;;;27.04;74.83
76124;BME280;65173;48.066;20.976;2023-06-24T15:42:19;100423.66;;;26.36;77.41
76124;BME280;65173;48.066;20.976;2023-06-24T15:45:22;100415.25;;;26.23;79.07
76124;BME280;65173;48.066;20.976;2023-06-24T15:48:24;100430.84;;;26.26;80.78
76124;BME280;65173;48.066;20.976;2023-06-24T15:51:27;100424.69;;;25.95;82.78
76124;BME280;65173;48.066;20.976;2023-06-24T15:54:30;100443.13;;;25.60;84.32
76124;BME280;65173;48.066;20.976;2023-06-24T15:57:32;100458.72;;;25.60;85.29
76124;BME280;65173;48.066;20.976;2023-06-24T16:00:35;100459.78;;;25.39;87.35
76124;BME280;65173;48.066;20.976;2023-06-24T16:03:38;100459.53;;;24.89;90.42
76124;BME280;65173;48.066;20.976;2023-06-24T16:06:41;100466.22;;;24.81;93.81
76124;BME280;65173;48.066;20.976;2023-06-24T16:09:44;100471.91;;;24.04;100.00
76124;BME280;65173;48.066;20.976;2023-06-24T16:12:47;100453.41;;;23.78;100.00
76124;BME280;65173;48.066;20.976;2023-06-24T16:15:49;100451.56;;;23.57;100.00
76124;BME280;65173;48.066;20.976;2023-06-24T16:18:52;100470.00;;;22.96;100.00
76124;BME280;65173;48.066;20.976;2023-06-24T16:21:55;100485.94;;;22.76;100.00
76124;BME280;65173;48.066;20.976;2023-06-24T16:24:57;100492.94;;;22.67;100.00
76124;BME280;65173;48.066;20.976;2023-06-24T16:28:00;100487.53;;;22.92;100.00
76124;BME280;65173;48.066;20.976;2023-06-24T16:31:03;100486.75;;;22.88;100.00
76124;BME280;65173;48.066;20.976;2023-06-24T16:34:06;100495.25;;;22.93;100.00
76124;BME280;65173;48.066;20.976;2023-06-24T16:37:24;100499.56;;;22.87;100.00
76124;BME280;65173;48.066;20.976;2023-06-24T16:40:27;100510.03;;;22.92;100.00
76124;BME280;65173;48.066;20.976;2023-06-24T16:43:31;100507.69;;;23.05;100.00
76124;BME280;65173;48.066;20.976;2023-06-24T16:46:34;100518.56;;;23.01;100.00
76124;BME280;65173;48.066;20.976;2023-06-24T16:49:36;100531.00;;;22.70;100.00
76124;BME280;65173;48.066;20.976;2023-06-24T16:52:39;100516.22;;;22.61;100.00
76124;BME280;65173;48.066;20.976;2023-06-24T16:55:42;100511.97;;;22.49;100.00
76124;BME280;65173;48.066;20.976;2023-06-24T16:58:44;100520.13;;;22.45;100.00
76124;BME280;65173;48.066;20.976;2023-06-24T17:01:47;100506.50;;;22.10;100.00
76124;BME280;65173;48.066;20.976;2023-06-24T17:04:49;100516.50;;;21.95;100.00
76124;BME280;65173;48.066;20.976;2023-06-24T17:07:52;100523.16;;;22.01;100.00
76124;BME280;65173;48.066;20.976;2023-06-24T17:10:55;100522.75;;;22.06;100.00
76124;BME280;65173;48.066;20.976;2023-06-24T17:13:57;100520.41;;;21.98;100.00
76124;BME280;65173;48.066;20.976;2023-06-24T17:17:00;100503.94;;;21.52;100.00
76124;BME280;65173;48.066;20.976;2023-06-24T17:20:03;100498.41;;;21.23;100.00
76124;BME280;65173;48.066;20.976;2023-06-24T17:23:06;100514.31;;;21.28;100.00
76124;BME280;65173;48.066;20.976;2023-06-24T17:26:09;100533.78;;;21.52;100.00
76124;BME280;65173;48.066;20.976;2023-06-24T17:29:12;100552.72;;;21.41;100.00
76124;BME280;65173;48.066;20.976;2023-06-24T17:32:17;100551.50;;;21.35;100.00